sensor_id;sensor_type;location;lat;lon;timestamp;temperature;humidity
3416;DHT22;1721;51.238;9.562;2023-08-30T00:00:15;13.90;94.00
3416;DHT22;1721;51.238;9.562;2023-08-30T00:02:43;13.90;94.00
3416;DHT22;1721;51.238;9.562;2023-08-30T00:05:09;13.80;94.00
3416;DHT22;1721;51.238;9.562;2023-08-30T00:07:35;13.80;94.10
3416;DHT22;1721;51.238;9.562;2023-08-30T00:10:01;13.70;94.30
3416;DHT22;1721;51.238;9.562;2023-08-30T00:12:27;13.70;94.30
3416;DHT22;1721;51.238;9.562;2023-08-30T00:14:53;13.70;94.40
3416;DHT22;1721;51.238;9.562;2023-08-30T00:17:18;13.70;94.30
3416;DHT22;1721;51.238;9.562;2023-08-30T00:19:45;13.70;94.30
3416;DHT22;1721;51.238;9.562;2023-08-30T00:22:11;13.60;94.20
3416;DHT22;1721;51.238;9.562;2023-08-30T00:24:37;13.60;94.20
3416;DHT22;1721;51.238;9.562;2023-08-30T00:27:03;13.60;94.20
3416;DHT22;1721;51.238;9.562;2023-08-30T00:29:29;13.60;94.10
3416;DHT22;1721;51.238;9.562;2023-08-30T00:31:55;13.60;94.20
3416;DHT22;1721;51.238;9.562;2023-08-30T00:34:21;13.50;94.20
3416;DHT22;1721;51.238;9.562;2023-08-30T00:36:46;13.50;94.20
3416;DHT22;1721;51.238;9.562;2023-08-30T00:39:12;13.50;94.30
3416;DHT22;1721;51.238;9.562;2023-08-30T00:41:38;13.50;94.40
3416;DHT22;1721;51.238;9.562;2023-08-30T00:44:04;13.50;94.50
3416;DHT22;1721;51.238;9.562;2023-08-30T00:46:30;13.50;94.50
3416;DHT22;1721;51.238;9.562;2023-08-30T00:48:57;13.50;94.50
3416;DHT22;1721;51.238;9.562;2023-08-30T00:51:23;13.50;94.60
3416;DHT22;1721;51.238;9.562;2023-08-30T00:53:48;13.40;94.50
3416;DHT22;1721;51.238;9.562;2023-08-30T00:56:15;13.50;94.60
3416;DHT22;1721;51.238;9.562;2023-08-30T00:58:41;13.50;94.50
3416;DHT22;1721;51.238;9.562;2023-08-30T01:01:06;13.50;94.60
3416;DHT22;1721;51.238;9.562;2023-08-30T01:03:34;13.50;94.50
3416;DHT22;1721;51.238;9.562;2023-08-30T01:06:00;13.50;94.40
3416;DHT22;1721;51.238;9.562;2023-08-30T01:08:27;13.40;94.40
3416;DHT22;1721;51.238;9.562;2023-08-30T01:11:00;13.40;94.40
3416;DHT22;1721;51.238;9.562;2023-08-30T01:13:30;13.40;94.40
3416;DHT22;1721;51.238;9.562;2023-08-30T01:15:59;13.40;94.30
3416;DHT22;1721;51.238;9.562;2023-08-30T01:18:26;13.40;94.30
3416;DHT22;1721;51.238;9.562;2023-08-30T01:20:54;13.30;94.20
3416;DHT22;1721;51.238;9.562;2023-08-30T01:23:49;13.30;94.30
3416;DHT22;1721;51.238;9.562;2023-08-30T01:28:59;13.30;94.30
3416;DHT22;1721;51.238;9.562;2023-08-30T01:31:27;13.30;94.60
3416;DHT22;1721;51.238;9.562;2023-08-30T01:33:55;13.20;94.30
3416;DHT22;1721;51.238;9.562;2023-08-30T01:36:22;13.20;94.40
3416;DHT22;1721;51.238;9.562;2023-08-30T01:38:48;13.20;94.30
3416;DHT22;1721;51.238;9.562;2023-08-30T01:41:15;13.20;94.40
3416;DHT22;1721;51.238;9.562;2023-08-30T01:43:41;13.20;94.40
3416;DHT22;1721;51.238;9.562;2023-08-30T01:46:08;13.20;94.40
3416;DHT22;1721;51.238;9.562;2023-08-30T01:48:35;13.10;94.20
3416;DHT22;1721;51.238;9.562;2023-08-30T01:51:01;12.90;94.80
3416;DHT22;1721;51.238;9.562;2023-08-30T01:53:28;12.80;95.00
3416;DHT22;1721;51.238;9.562;2023-08-30T01:55:54;12.90;95.30
3416;DHT22;1721;51.238;9.562;2023-08-30T01:58:19;12.90;95.20
3416;DHT22;1721;51.238;9.562;2023-08-30T02:00:45;12.90;95.00
3416;DHT22;1721;51.238;9.562;2023-08-30T02:03:12;12.90;95.20
3416;DHT22;1721;51.238;9.562;2023-08-30T02:05:48;12.90;95.20
3416;DHT22;1721;51.238;9.562;2023-08-30T02:08:17;13.00;95.30
3416;DHT22;1721;51.238;9.562;2023-08-30T02:10:55;13.10;95.10
3416;DHT22;1721;51.238;9.562;2023-08-30T02:13:25;13.10;95.00
3416;DHT22;1721;51.238;9.562;2023-08-30T02:15:54;13.10;94.90
3416;DHT22;1721;51.238;9.562;2023-08-30T02:18:20;13.10;94.80
3416;DHT22;1721;51.238;9.562;2023-08-30T02:20:46;13.10;94.80
3416;DHT22;1721;51.238;9.562;2023-08-30T02:23:12;13.10;94.70
3416;DHT22;1721;51.238;9.562;2023-08-30T02:25:37;13.10;94.70
3416;DHT22;1721;51.238;9.562;2023-08-30T02:28:03;13.10;94.70
3416;DHT22;1721;51.238;9.562;2023-08-30T02:30:29;13.10;94.80
3416;DHT22;1721;51.238;9.562;2023-08-30T02:32:54;13.10;94.90
3416;DHT22;1721;51.238;9.562;2023-08-30T02:35:20;13.10;94.90
3416;DHT22;1721;51.238;9.562;2023-08-30T02:37:45;13.20;94.80
3416;DHT22;1721;51.238;9.562;2023-08-30T02:40:11;13.10;94.80
3416;DHT22;1721;51.238;9.562;2023-08-30T02:42:37;13.10;94.80
3416;DHT22;1721;51.238;9.562;2023-08-30T02:45:02;13.20;94.80
3416;DHT22;1721;51.238;9.562;2023-08-30T02:47:28;13.10;94.70
3416;DHT22;1721;51.238;9.562;2023-08-30T02:49:53;13.10;94.70
3416;DHT22;1721;51.238;9.562;2023-08-30T02:52:19;13.10;94.80
3416;DHT22;1721;51.238;9.562;2023-08-30T02:54:44;13.10;94.80
3416;DHT22;1721;51.238;9.562;2023-08-30T02:57:10;13.20;94.90
3416;DHT22;1721;51.238;9.562;2023-08-30T02:59:36;13.20;94.90
3416;DHT22;1721;51.238;9.562;2023-08-30T03:02:01;13.20;95.00
3416;DHT22;1721;51.238;9.562;2023-08-30T03:04:28;13.20;95.00
3416;DHT22;1721;51.238;9.562;2023-08-30T03:06:53;13.10;95.40
3416;DHT22;1721;51.238;9.562;2023-08-30T03:14:11;13.20;99.90
3416;DHT22;1721;51.238;9.562;2023-08-30T03:16:36;13.30;99.90
3416;DHT22;1721;51.238;9.562;2023-08-30T03:19:02;13.40;99.90
3416;DHT22;1721;51.238;9.562;2023-08-30T03:23:54;13.50;99.90
3416;DHT22;1721;51.238;9.562;2023-08-30T03:26:19;13.50;99.90
3416;DHT22;1721;51.238;9.562;2023-08-30T03:28:45;13.60;99.90
3416;DHT22;1721;51.238;9.562;2023-08-30T03:31:14;13.60;99.90
3416;DHT22;1721;51.238;9.562;2023-08-30T03:33:40;13.70;99.90
3416;DHT22;1721;51.238;9.562;2023-08-30T03:36:16;13.70;99.90
3416;DHT22;1721;51.238;9.562;2023-08-30T03:38:42;13.80;99.90
3416;DHT22;1721;51.238;9.562;2023-08-30T03:41:09;13.70;99.90
3416;DHT22;1721;51.238;9.562;2023-08-30T03:43:35;13.70;99.90
3416;DHT22;1721;51.238;9.562;2023-08-30T03:46:01;13.70;99.90
3416;DHT22;1721;51.238;9.562;2023-08-30T03:48:27;13.60;99.90
3416;DHT22;1721;51.238;9.562;2023-08-30T03:50:54;13.60;99.90
3416;DHT22;1721;51.238;9.562;2023-08-30T03:53:20;13.30;99.90
3416;DHT22;1721;51.238;9.562;2023-08-30T03:55:45;13.30;99.90
3416;DHT22;1721;51.238;9.562;2023-08-30T03:58:11;13.40;99.90
3416;DHT22;1721;51.238;9.562;2023-08-30T04:00:37;13.50;99.90
3416;DHT22;1721;51.238;9.562;2023-08-30T04:03:04;13.60;99.90
3416;DHT22;1721;51.238;9.562;2023-08-30T04:05:33;13.70;99.90
3416;DHT22;1721;51.238;9.562;2023-08-30T04:08:00;13.80;99.90
3416;DHT22;1721;51.238;9.562;2023-08-30T04:10:26;13.90;99.90
3416;DHT22;1721;51.238;9.562;2023-08-30T04:12:51;13.90;99.90
3416;DHT22;1721;51.238;9.562;2023-08-30T04:15:17;14.00;99.90
3416;DHT22;1721;51.238;9.562;2023-08-30T04:17:42;14.00;99.90
3416;DHT22;1721;51.238;9.562;2023-08-30T04:20:08;13.90;99.90
3416;DHT22;1721;51.238;9.562;2023-08-30T04:22:36;14.00;99.90
3416;DHT22;1721;51.238;9.562;2023-08-30T04:25:01;14.00;99.90
3416;DHT22;1721;51.238;9.562;2023-08-30T04:27:27;14.10;99.90
3416;DHT22;1721;51.238;9.562;2023-08-30T04:29:53;14.10;99.90
3416;DHT22;1721;51.238;9.562;2023-08-30T04:32:19;14.20;99.90
3416;DHT22;1721;51.238;9.562;2023-08-30T04:34:44;14.20;99.90
3416;DHT22;1721;51.238;9.562;2023-08-30T04:37:10;14.20;99.90
3416;DHT22;1721;51.238;9.562;2023-08-30T04:39:35;14.30;99.90
3416;DHT22;1721;51.238;9.562;2023-08-30T04:44:28;14.00;99.90
3416;DHT22;1721;51.238;9.562;2023-08-30T04:49:20;13.80;99.90
3416;DHT22;1721;51.238;9.562;2023-08-30T04:54:12;14.10;99.90
3416;DHT22;1721;51.238;9.562;2023-08-30T04:56:38;14.30;99.90
3416;DHT22;1721;51.238;9.562;2023-08-30T04:59:03;14.40;99.90
3416;DHT22;1721;51.238;9.562;2023-08-30T05:01:32;14.50;99.90
3416;DHT22;1721;51.238;9.562;2023-08-30T05:03:58;14.60;99.90
3416;DHT22;1721;51.238;9.562;2023-08-30T05:06:23;14.70;99.90
3416;DHT22;1721;51.238;9.562;2023-08-30T05:08:49;14.70;99.90
3416;DHT22;1721;51.238;9.562;2023-08-30T05:11:14;14.80;99.90
3416;DHT22;1721;51.238;9.562;2023-08-30T05:16:07;14.90;99.90
3416;DHT22;1721;51.238;9.562;2023-08-30T05:18:32;15.00;99.90
3416;DHT22;1721;51.238;9.562;2023-08-30T05:20:58;15.10;99.90
3416;DHT22;1721;51.238;9.562;2023-08-30T05:23:23;15.20;99.90
3416;DHT22;1721;51.238;9.562;2023-08-30T05:25:49;15.30;99.90
3416;DHT22;1721;51.238;9.562;2023-08-30T05:28:14;15.40;99.90
3416;DHT22;1721;51.238;9.562;2023-08-30T05:30:42;15.50;99.90
3416;DHT22;1721;51.238;9.562;2023-08-30T05:33:07;15.60;99.90
3416;DHT22;1721;51.238;9.562;2023-08-30T05:37:59;15.60;99.90
3416;DHT22;1721;51.238;9.562;2023-08-30T05:40:25;15.50;99.90
3416;DHT22;1721;51.238;9.562;2023-08-30T05:42:50;15.60;99.90
3416;DHT22;1721;51.238;9.562;2023-08-30T05:45:16;15.60;99.90
3416;DHT22;1721;51.238;9.562;2023-08-30T05:47:42;15.70;99.90
3416;DHT22;1721;51.238;9.562;2023-08-30T05:50:08;15.80;99.90
3416;DHT22;1721;51.238;9.562;2023-08-30T05:52:33;15.90;99.90
3416;DHT22;1721;51.238;9.562;2023-08-30T05:54:59;16.00;99.90
3416;DHT22;1721;51.238;9.562;2023-08-30T05:57:25;16.00;99.90
3416;DHT22;1721;51.238;9.562;2023-08-30T05:59:51;16.00;99.90
3416;DHT22;1721;51.238;9.562;2023-08-30T06:02:16;16.10;99.90
3416;DHT22;1721;51.238;9.562;2023-08-30T06:04:42;16.10;99.90
3416;DHT22;1721;51.238;9.562;2023-08-30T06:07:08;16.20;99.90
3416;DHT22;1721;51.238;9.562;2023-08-30T06:09:33;16.30;99.90
3416;DHT22;1721;51.238;9.562;2023-08-30T06:11:59;16.40;99.90
3416;DHT22;1721;51.238;9.562;2023-08-30T06:14:24;16.50;99.90
3416;DHT22;1721;51.238;9.562;2023-08-30T06:16:50;16.50;99.90
3416;DHT22;1721;51.238;9.562;2023-08-30T06:19:15;16.60;99.90
3416;DHT22;1721;51.238;9.562;2023-08-30T06:21:41;16.70;99.90
3416;DHT22;1721;51.238;9.562;2023-08-30T06:24:07;16.80;99.90
3416;DHT22;1721;51.238;9.562;2023-08-30T07:03:14;17.00;99.90
3416;DHT22;1721;51.238;9.562;2023-08-30T07:12:59;17.00;99.90
3416;DHT22;1721;51.238;9.562;2023-08-30T07:15:25;16.90;99.90
3416;DHT22;1721;51.238;9.562;2023-08-30T07:17:51;16.80;99.90
3416;DHT22;1721;51.238;9.562;2023-08-30T07:20:17;17.00;99.90
3416;DHT22;1721;51.238;9.562;2023-08-30T07:22:42;17.00;99.90
3416;DHT22;1721;51.238;9.562;2023-08-30T07:25:08;17.20;99.90
3416;DHT22;1721;51.238;9.562;2023-08-30T07:27:36;17.40;99.90
3416;DHT22;1721;51.238;9.562;2023-08-30T07:30:01;17.50;99.90
3416;DHT22;1721;51.238;9.562;2023-08-30T07:32:29;17.70;99.90
3416;DHT22;1721;51.238;9.562;2023-08-30T07:34:54;17.60;99.90
3416;DHT22;1721;51.238;9.562;2023-08-30T07:37:21;17.50;99.90
3416;DHT22;1721;51.238;9.562;2023-08-30T07:39:46;17.50;99.90
3416;DHT22;1721;51.238;9.562;2023-08-30T07:44:40;17.50;99.90
3416;DHT22;1721;51.238;9.562;2023-08-30T07:47:05;17.60;99.90
3416;DHT22;1721;51.238;9.562;2023-08-30T07:51:56;17.80;99.90
3416;DHT22;1721;51.238;9.562;2023-08-30T07:54:22;17.80;99.90
3416;DHT22;1721;51.238;9.562;2023-08-30T07:56:48;17.90;99.90
3416;DHT22;1721;51.238;9.562;2023-08-30T08:08:57;18.60;99.90
3416;DHT22;1721;51.238;9.562;2023-08-30T08:11:23;18.60;99.90
3416;DHT22;1721;51.238;9.562;2023-08-30T08:16:14;18.40;99.90
3416;DHT22;1721;51.238;9.562;2023-08-30T08:23:32;18.80;99.90
3416;DHT22;1721;51.238;9.562;2023-08-30T08:25:59;18.80;99.90
3416;DHT22;1721;51.238;9.562;2023-08-30T08:28:24;18.90;99.90
3416;DHT22;1721;51.238;9.562;2023-08-30T08:30:50;19.00;99.90
3416;DHT22;1721;51.238;9.562;2023-08-30T08:33:17;19.10;99.90
3416;DHT22;1721;51.238;9.562;2023-08-30T08:35:43;19.30;99.90
3416;DHT22;1721;51.238;9.562;2023-08-30T08:38:10;19.30;99.90
3416;DHT22;1721;51.238;9.562;2023-08-30T08:40:39;19.30;99.90
3416;DHT22;1721;51.238;9.562;2023-08-30T08:43:05;19.20;99.90
3416;DHT22;1721;51.238;9.562;2023-08-30T08:47:58;19.30;99.90
3416;DHT22;1721;51.238;9.562;2023-08-30T08:50:24;19.20;99.90
3416;DHT22;1721;51.238;9.562;2023-08-30T08:52:50;19.10;99.90
3416;DHT22;1721;51.238;9.562;2023-08-30T08:55:17;19.00;99.90
3416;DHT22;1721;51.238;9.562;2023-08-30T08:57:43;19.10;99.90
3416;DHT22;1721;51.238;9.562;2023-08-30T09:00:10;19.20;99.90
3416;DHT22;1721;51.238;9.562;2023-08-30T09:02:36;19.20;99.90
3416;DHT22;1721;51.238;9.562;2023-08-30T09:05:02;19.30;99.90
3416;DHT22;1721;51.238;9.562;2023-08-30T09:07:30;19.50;99.90
3416;DHT22;1721;51.238;9.562;2023-08-30T09:09:56;19.60;99.90
3416;DHT22;1721;51.238;9.562;2023-08-30T09:12:22;19.60;99.90
3416;DHT22;1721;51.238;9.562;2023-08-30T09:14:57;19.80;99.90
3416;DHT22;1721;51.238;9.562;2023-08-30T09:17:23;19.90;99.90
3416;DHT22;1721;51.238;9.562;2023-08-30T09:19:49;20.10;99.90
3416;DHT22;1721;51.238;9.562;2023-08-30T09:22:15;20.20;99.90
3416;DHT22;1721;51.238;9.562;2023-08-30T09:24:41;20.10;99.90
3416;DHT22;1721;51.238;9.562;2023-08-30T09:27:07;20.20;99.90
3416;DHT22;1721;51.238;9.562;2023-08-30T09:29:33;20.10;99.90
3416;DHT22;1721;51.238;9.562;2023-08-30T09:31:58;20.00;99.90
3416;DHT22;1721;51.238;9.562;2023-08-30T09:34:26;20.20;99.90
3416;DHT22;1721;51.238;9.562;2023-08-30T09:36:53;20.40;99.90
3416;DHT22;1721;51.238;9.562;2023-08-30T09:39:19;20.50;99.90
3416;DHT22;1721;51.238;9.562;2023-08-30T09:41:49;20.70;99.90
3416;DHT22;1721;51.238;9.562;2023-08-30T09:49:14;21.00;99.90
3416;DHT22;1721;51.238;9.562;2023-08-30T09:51:41;21.10;99.90
3416;DHT22;1721;51.238;9.562;2023-08-30T09:54:14;21.20;99.90
3416;DHT22;1721;51.238;9.562;2023-08-30T09:56:41;21.20;99.90
3416;DHT22;1721;51.238;9.562;2023-08-30T09:59:08;21.10;99.90
3416;DHT22;1721;51.238;9.562;2023-08-30T10:01:36;20.80;99.90
3416;DHT22;1721;51.238;9.562;2023-08-30T10:04:02;20.80;92.10
3416;DHT22;1721;51.238;9.562;2023-08-30T10:06:30;20.80;92.30
3416;DHT22;1721;51.238;9.562;2023-08-30T10:08:56;20.50;91.90
3416;DHT22;1721;51.238;9.562;2023-08-30T10:11:24;20.60;92.60
3416;DHT22;1721;51.238;9.562;2023-08-30T10:13:51;20.60;92.50
3416;DHT22;1721;51.238;9.562;2023-08-30T10:16:22;20.50;92.60
3416;DHT22;1721;51.238;9.562;2023-08-30T10:18:53;20.60;92.90
3416;DHT22;1721;51.238;9.562;2023-08-30T10:21:20;20.80;92.70
3416;DHT22;1721;51.238;9.562;2023-08-30T10:23:48;20.80;91.70
3416;DHT22;1721;51.238;9.562;2023-08-30T10:26:16;20.90;91.90
3416;DHT22;1721;51.238;9.562;2023-08-30T10:28:44;21.00;91.80
3416;DHT22;1721;51.238;9.562;2023-08-30T10:31:10;20.90;92.30
3416;DHT22;1721;51.238;9.562;2023-08-30T10:33:54;20.90;92.40
3416;DHT22;1721;51.238;9.562;2023-08-30T10:36:24;21.00;92.00
3416;DHT22;1721;51.238;9.562;2023-08-30T10:38:52;21.00;92.40
3416;DHT22;1721;51.238;9.562;2023-08-30T10:41:22;21.00;91.90
3416;DHT22;1721;51.238;9.562;2023-08-30T10:43:50;20.90;91.60
3416;DHT22;1721;51.238;9.562;2023-08-30T10:46:17;21.00;92.30
3416;DHT22;1721;51.238;9.562;2023-08-30T10:48:42;21.10;91.80
3416;DHT22;1721;51.238;9.562;2023-08-30T10:51:34;21.00;91.80
3416;DHT22;1721;51.238;9.562;2023-08-30T10:54:10;21.20;91.80
3416;DHT22;1721;51.238;9.562;2023-08-30T10:59:18;21.40;92.10
3416;DHT22;1721;51.238;9.562;2023-08-30T11:01:45;21.30;91.90
3416;DHT22;1721;51.238;9.562;2023-08-30T11:04:11;21.40;91.90
3416;DHT22;1721;51.238;9.562;2023-08-30T11:06:43;21.40;92.00
3416;DHT22;1721;51.238;9.562;2023-08-30T11:09:09;21.40;91.90
3416;DHT22;1721;51.238;9.562;2023-08-30T11:11:39;21.40;92.30
3416;DHT22;1721;51.238;9.562;2023-08-30T11:14:08;21.40;91.40
3416;DHT22;1721;51.238;9.562;2023-08-30T11:16:35;21.40;91.50
3416;DHT22;1721;51.238;9.562;2023-08-30T11:19:04;21.30;91.60
3416;DHT22;1721;51.238;9.562;2023-08-30T11:21:31;21.20;91.80
3416;DHT22;1721;51.238;9.562;2023-08-30T11:23:57;21.20;91.80
3416;DHT22;1721;51.238;9.562;2023-08-30T11:26:23;21.00;91.10
3416;DHT22;1721;51.238;9.562;2023-08-30T11:28:48;20.90;91.50
3416;DHT22;1721;51.238;9.562;2023-08-30T11:31:24;21.10;91.70
3416;DHT22;1721;51.238;9.562;2023-08-30T11:33:56;21.10;91.80
3416;DHT22;1721;51.238;9.562;2023-08-30T11:36:23;21.00;89.70
3416;DHT22;1721;51.238;9.562;2023-08-30T11:38:50;21.00;89.60
3416;DHT22;1721;51.238;9.562;2023-08-30T11:41:16;21.10;90.10
3416;DHT22;1721;51.238;9.562;2023-08-30T11:43:43;21.20;90.30
3416;DHT22;1721;51.238;9.562;2023-08-30T11:46:09;21.30;89.70
3416;DHT22;1721;51.238;9.562;2023-08-30T11:48:35;21.50;90.50
3416;DHT22;1721;51.238;9.562;2023-08-30T11:51:01;21.60;89.30
3416;DHT22;1721;51.238;9.562;2023-08-30T11:53:26;21.80;89.40
3416;DHT22;1721;51.238;9.562;2023-08-30T11:55:53;22.00;88.90
3416;DHT22;1721;51.238;9.562;2023-08-30T11:58:19;22.10;88.00
3416;DHT22;1721;51.238;9.562;2023-08-30T12:00:45;22.30;87.20
3416;DHT22;1721;51.238;9.562;2023-08-30T12:03:14;22.40;86.20
3416;DHT22;1721;51.238;9.562;2023-08-30T12:05:47;22.60;86.90
3416;DHT22;1721;51.238;9.562;2023-08-30T12:08:28;22.50;85.50
3416;DHT22;1721;51.238;9.562;2023-08-30T12:10:55;22.30;86.40
3416;DHT22;1721;51.238;9.562;2023-08-30T12:13:32;22.00;85.40
3416;DHT22;1721;51.238;9.562;2023-08-30T12:15:58;21.90;86.00
3416;DHT22;1721;51.238;9.562;2023-08-30T12:18:26;21.70;83.30
3416;DHT22;1721;51.238;9.562;2023-08-30T12:20:56;21.80;85.60
3416;DHT22;1721;51.238;9.562;2023-08-30T12:23:24;21.70;84.40
3416;DHT22;1721;51.238;9.562;2023-08-30T12:26:04;21.90;84.30
3416;DHT22;1721;51.238;9.562;2023-08-30T12:28:37;22.20;84.30
3416;DHT22;1721;51.238;9.562;2023-08-30T12:31:03;22.40;84.90
3416;DHT22;1721;51.238;9.562;2023-08-30T12:33:33;22.50;82.10
3416;DHT22;1721;51.238;9.562;2023-08-30T12:35:59;22.60;80.80
3416;DHT22;1721;51.238;9.562;2023-08-30T12:38:25;22.40;80.50
3416;DHT22;1721;51.238;9.562;2023-08-30T12:40:52;22.20;83.00
3416;DHT22;1721;51.238;9.562;2023-08-30T12:43:18;21.80;81.30
3416;DHT22;1721;51.238;9.562;2023-08-30T12:45:45;21.70;81.60
3416;DHT22;1721;51.238;9.562;2023-08-30T12:48:12;21.70;82.40
3416;DHT22;1721;51.238;9.562;2023-08-30T12:50:39;21.90;82.90
3416;DHT22;1721;51.238;9.562;2023-08-30T12:53:06;22.00;82.60
3416;DHT22;1721;51.238;9.562;2023-08-30T12:55:32;22.00;82.80
3416;DHT22;1721;51.238;9.562;2023-08-30T12:57:57;21.90;82.80
3416;DHT22;1721;51.238;9.562;2023-08-30T13:00:24;21.80;82.00
3416;DHT22;1721;51.238;9.562;2023-08-30T13:02:50;21.70;81.90
3416;DHT22;1721;51.238;9.562;2023-08-30T13:05:16;21.70;83.00
3416;DHT22;1721;51.238;9.562;2023-08-30T13:07:42;21.60;82.70
3416;DHT22;1721;51.238;9.562;2023-08-30T13:10:08;21.60;82.80
3416;DHT22;1721;51.238;9.562;2023-08-30T13:12:34;21.60;82.80
3416;DHT22;1721;51.238;9.562;2023-08-30T13:14:59;21.70;83.00
3416;DHT22;1721;51.238;9.562;2023-08-30T13:17:25;21.60;84.10
3416;DHT22;1721;51.238;9.562;2023-08-30T13:19:50;21.60;84.30
3416;DHT22;1721;51.238;9.562;2023-08-30T13:22:16;21.60;84.80
3416;DHT22;1721;51.238;9.562;2023-08-30T13:24:43;21.70;84.60
3416;DHT22;1721;51.238;9.562;2023-08-30T13:27:09;21.70;83.60
3416;DHT22;1721;51.238;9.562;2023-08-30T13:29:35;21.70;84.50
3416;DHT22;1721;51.238;9.562;2023-08-30T13:32:00;21.70;83.40
3416;DHT22;1721;51.238;9.562;2023-08-30T13:34:26;21.90;83.20
3416;DHT22;1721;51.238;9.562;2023-08-30T13:36:51;22.20;83.20
3416;DHT22;1721;51.238;9.562;2023-08-30T13:39:17;22.40;83.90
3416;DHT22;1721;51.238;9.562;2023-08-30T13:41:45;22.50;83.20
3416;DHT22;1721;51.238;9.562;2023-08-30T13:44:10;22.40;81.90
3416;DHT22;1721;51.238;9.562;2023-08-30T13:46:35;22.60;82.40
3416;DHT22;1721;51.238;9.562;2023-08-30T13:49:01;22.50;82.00
3416;DHT22;1721;51.238;9.562;2023-08-30T13:51:27;22.30;80.90
3416;DHT22;1721;51.238;9.562;2023-08-30T13:53:53;22.20;81.50
3416;DHT22;1721;51.238;9.562;2023-08-30T13:56:19;22.10;83.90
3416;DHT22;1721;51.238;9.562;2023-08-30T13:58:45;22.10;83.50
3416;DHT22;1721;51.238;9.562;2023-08-30T14:01:11;22.30;83.20
3416;DHT22;1721;51.238;9.562;2023-08-30T14:03:37;22.40;82.30
3416;DHT22;1721;51.238;9.562;2023-08-30T14:06:03;22.30;82.00
3416;DHT22;1721;51.238;9.562;2023-08-30T14:08:29;22.20;81.70
3416;DHT22;1721;51.238;9.562;2023-08-30T14:10:55;22.20;82.80
3416;DHT22;1721;51.238;9.562;2023-08-30T14:13:21;22.30;82.00
3416;DHT22;1721;51.238;9.562;2023-08-30T14:15:47;22.40;83.00
3416;DHT22;1721;51.238;9.562;2023-08-30T14:18:12;22.20;82.70
3416;DHT22;1721;51.238;9.562;2023-08-30T14:20:38;22.00;84.40
3416;DHT22;1721;51.238;9.562;2023-08-30T14:23:03;21.90;84.80
3416;DHT22;1721;51.238;9.562;2023-08-30T14:25:29;21.70;84.00
3416;DHT22;1721;51.238;9.562;2023-08-30T14:27:54;21.40;85.40
3416;DHT22;1721;51.238;9.562;2023-08-30T14:30:21;21.30;85.50
3416;DHT22;1721;51.238;9.562;2023-08-30T14:32:47;21.20;85.30
3416;DHT22;1721;51.238;9.562;2023-08-30T14:35:12;21.30;85.00
3416;DHT22;1721;51.238;9.562;2023-08-30T14:37:38;21.30;84.80
3416;DHT22;1721;51.238;9.562;2023-08-30T14:40:05;21.40;86.20
3416;DHT22;1721;51.238;9.562;2023-08-30T14:42:31;21.50;84.50
3416;DHT22;1721;51.238;9.562;2023-08-30T14:44:57;21.20;84.80
3416;DHT22;1721;51.238;9.562;2023-08-30T14:47:23;21.20;86.60
3416;DHT22;1721;51.238;9.562;2023-08-30T14:49:49;21.20;85.80
3416;DHT22;1721;51.238;9.562;2023-08-30T14:52:15;21.10;85.40
3416;DHT22;1721;51.238;9.562;2023-08-30T14:54:41;21.20;87.50
3416;DHT22;1721;51.238;9.562;2023-08-30T14:57:07;21.10;85.60
3416;DHT22;1721;51.238;9.562;2023-08-30T14:59:32;21.20;86.70
3416;DHT22;1721;51.238;9.562;2023-08-30T15:01:58;21.30;86.00
3416;DHT22;1721;51.238;9.562;2023-08-30T15:04:24;21.30;85.80
3416;DHT22;1721;51.238;9.562;2023-08-30T15:06:50;21.20;86.10
3416;DHT22;1721;51.238;9.562;2023-08-30T15:09:16;21.20;86.50
3416;DHT22;1721;51.238;9.562;2023-08-30T15:11:43;20.90;85.90
3416;DHT22;1721;51.238;9.562;2023-08-30T15:14:08;20.70;85.80
3416;DHT22;1721;51.238;9.562;2023-08-30T15:16:34;20.60;87.20
3416;DHT22;1721;51.238;9.562;2023-08-30T15:19:00;20.60;86.70
3416;DHT22;1721;51.238;9.562;2023-08-30T15:21:26;20.60;86.40
3416;DHT22;1721;51.238;9.562;2023-08-30T15:23:51;20.60;86.30
3416;DHT22;1721;51.238;9.562;2023-08-30T15:26:17;20.80;86.40
3416;DHT22;1721;51.238;9.562;2023-08-30T15:28:43;20.80;86.00
3416;DHT22;1721;51.238;9.562;2023-08-30T15:31:12;20.70;86.00
3416;DHT22;1721;51.238;9.562;2023-08-30T15:33:38;20.90;87.50
3416;DHT22;1721;51.238;9.562;2023-08-30T15:36:04;20.80;87.30
3416;DHT22;1721;51.238;9.562;2023-08-30T15:38:30;20.80;87.90
3416;DHT22;1721;51.238;9.562;2023-08-30T15:40:56;20.70;87.20
3416;DHT22;1721;51.238;9.562;2023-08-30T15:43:22;20.70;87.10
3416;DHT22;1721;51.238;9.562;2023-08-30T15:45:49;20.60;86.60
3416;DHT22;1721;51.238;9.562;2023-08-30T15:48:15;20.80;87.30
3416;DHT22;1721;51.238;9.562;2023-08-30T15:50:42;20.80;86.70
3416;DHT22;1721;51.238;9.562;2023-08-30T15:53:08;20.90;87.20
3416;DHT22;1721;51.238;9.562;2023-08-30T15:55:35;20.90;86.50
3416;DHT22;1721;51.238;9.562;2023-08-30T15:58:00;20.90;87.10
3416;DHT22;1721;51.238;9.562;2023-08-30T16:00:26;20.80;86.90
3416;DHT22;1721;51.238;9.562;2023-08-30T16:02:52;20.60;86.70
3416;DHT22;1721;51.238;9.562;2023-08-30T16:05:18;20.50;88.40
3416;DHT22;1721;51.238;9.562;2023-08-30T16:07:44;20.60;88.40
3416;DHT22;1721;51.238;9.562;2023-08-30T16:10:09;20.50;88.10
3416;DHT22;1721;51.238;9.562;2023-08-30T16:12:35;20.30;88.00
3416;DHT22;1721;51.238;9.562;2023-08-30T16:15:01;20.20;88.60
3416;DHT22;1721;51.238;9.562;2023-08-30T16:17:26;20.30;88.60
3416;DHT22;1721;51.238;9.562;2023-08-30T16:19:52;20.30;89.20
3416;DHT22;1721;51.238;9.562;2023-08-30T16:22:19;20.30;88.40
3416;DHT22;1721;51.238;9.562;2023-08-30T16:24:45;20.10;88.80
3416;DHT22;1721;51.238;9.562;2023-08-30T16:27:10;20.00;89.60
3416;DHT22;1721;51.238;9.562;2023-08-30T16:29:36;19.90;90.00
3416;DHT22;1721;51.238;9.562;2023-08-30T16:32:02;19.80;90.30
3416;DHT22;1721;51.238;9.562;2023-08-30T16:34:27;19.70;89.90
3416;DHT22;1721;51.238;9.562;2023-08-30T16:36:53;19.70;90.40
3416;DHT22;1721;51.238;9.562;2023-08-30T16:39:18;19.70;90.50
3416;DHT22;1721;51.238;9.562;2023-08-30T16:41:44;19.60;90.30
3416;DHT22;1721;51.238;9.562;2023-08-30T16:44:10;19.40;90.70
3416;DHT22;1721;51.238;9.562;2023-08-30T16:46:37;19.30;90.70
3416;DHT22;1721;51.238;9.562;2023-08-30T16:49:03;19.30;91.20
3416;DHT22;1721;51.238;9.562;2023-08-30T16:51:31;19.40;91.20
3416;DHT22;1721;51.238;9.562;2023-08-30T16:53:56;19.50;90.90
3416;DHT22;1721;51.238;9.562;2023-08-30T16:56:22;19.50;91.00
3416;DHT22;1721;51.238;9.562;2023-08-30T16:58:48;19.50;91.00
3416;DHT22;1721;51.238;9.562;2023-08-30T17:01:13;19.50;90.80
3416;DHT22;1721;51.238;9.562;2023-08-30T17:03:39;19.40;91.20
3416;DHT22;1721;51.238;9.562;2023-08-30T17:06:04;19.40;91.60
3416;DHT22;1721;51.238;9.562;2023-08-30T17:08:32;19.50;91.50
3416;DHT22;1721;51.238;9.562;2023-08-30T17:11:08;19.40;91.30
3416;DHT22;1721;51.238;9.562;2023-08-30T17:13:34;19.10;90.70
3416;DHT22;1721;51.238;9.562;2023-08-30T17:16:01;18.70;92.10
3416;DHT22;1721;51.238;9.562;2023-08-30T17:18:27;18.50;92.30
3416;DHT22;1721;51.238;9.562;2023-08-30T17:20:56;18.40;92.80
3416;DHT22;1721;51.238;9.562;2023-08-30T17:23:22;18.30;92.30
3416;DHT22;1721;51.238;9.562;2023-08-30T17:25:51;18.10;92.60
3416;DHT22;1721;51.238;9.562;2023-08-30T17:28:18;17.90;93.20
3416;DHT22;1721;51.238;9.562;2023-08-30T17:30:44;17.90;93.10
3416;DHT22;1721;51.238;9.562;2023-08-30T17:33:10;17.70;93.80
3416;DHT22;1721;51.238;9.562;2023-08-30T17:35:36;17.60;94.30